sensor_id;sensor_type;location;lat;lon;timestamp;temperature;humidity
23721;DHT22;42950;52.134;5.578;2022-08-20T00:00:23;20.90;99.90
23721;DHT22;42950;52.134;5.578;2022-08-20T00:02:59;20.90;99.90
23721;DHT22;42950;52.134;5.578;2022-08-20T00:05:29;20.90;99.90
23721;DHT22;42950;52.134;5.578;2022-08-20T00:07:56;20.80;99.90
23721;DHT22;42950;52.134;5.578;2022-08-20T00:10:24;20.80;99.90
23721;DHT22;42950;52.134;5.578;2022-08-20T00:12:50;20.80;99.90
23721;DHT22;42950;52.134;5.578;2022-08-20T00:15:19;20.80;99.90
23721;DHT22;42950;52.134;5.578;2022-08-20T00:17:49;20.90;99.90
23721;DHT22;42950;52.134;5.578;2022-08-20T00:20:17;20.90;99.90
23721;DHT22;42950;52.134;5.578;2022-08-20T00:22:43;20.80;99.90
23721;DHT22;42950;52.134;5.578;2022-08-20T00:25:09;20.80;99.90
23721;DHT22;42950;52.134;5.578;2022-08-20T00:27:35;20.80;99.90
23721;DHT22;42950;52.134;5.578;2022-08-20T00:30:02;20.80;99.90
23721;DHT22;42950;52.134;5.578;2022-08-20T00:32:29;20.80;99.90
23721;DHT22;42950;52.134;5.578;2022-08-20T00:34:54;20.90;99.90
23721;DHT22;42950;52.134;5.578;2022-08-20T00:37:20;20.80;99.90
23721;DHT22;42950;52.134;5.578;2022-08-20T00:39:45;20.80;99.90
23721;DHT22;42950;52.134;5.578;2022-08-20T00:42:11;20.80;99.90
23721;DHT22;42950;52.134;5.578;2022-08-20T00:44:44;20.80;99.90
23721;DHT22;42950;52.134;5.578;2022-08-20T00:47:10;20.80;99.90
23721;DHT22;42950;52.134;5.578;2022-08-20T00:49:36;20.80;99.90
23721;DHT22;42950;52.134;5.578;2022-08-20T00:54:38;20.80;99.90
23721;DHT22;42950;52.134;5.578;2022-08-20T00:57:25;20.80;99.90
23721;DHT22;42950;52.134;5.578;2022-08-20T00:59:53;20.80;99.90
23721;DHT22;42950;52.134;5.578;2022-08-20T01:02:22;20.80;99.90
23721;DHT22;42950;52.134;5.578;2022-08-20T01:04:49;20.80;99.90
23721;DHT22;42950;52.134;5.578;2022-08-20T01:07:22;20.80;99.90
23721;DHT22;42950;52.134;5.578;2022-08-20T01:09:57;20.80;99.90
23721;DHT22;42950;52.134;5.578;2022-08-20T01:12:24;20.80;99.90
23721;DHT22;42950;52.134;5.578;2022-08-20T01:14:50;20.70;99.90
23721;DHT22;42950;52.134;5.578;2022-08-20T01:17:20;20.70;99.90
23721;DHT22;42950;52.134;5.578;2022-08-20T01:20:00;20.70;99.90
23721;DHT22;42950;52.134;5.578;2022-08-20T01:22:54;20.70;99.90
23721;DHT22;42950;52.134;5.578;2022-08-20T01:25:51;20.70;99.90
23721;DHT22;42950;52.134;5.578;2022-08-20T01:28:21;20.70;99.90
23721;DHT22;42950;52.134;5.578;2022-08-20T01:30:48;20.70;99.90
23721;DHT22;42950;52.134;5.578;2022-08-20T01:33:13;20.70;99.90
23721;DHT22;42950;52.134;5.578;2022-08-20T01:35:41;20.70;99.90
23721;DHT22;42950;52.134;5.578;2022-08-20T01:38:08;20.70;99.90
23721;DHT22;42950;52.134;5.578;2022-08-20T01:43:09;20.70;99.90
23721;DHT22;42950;52.134;5.578;2022-08-20T01:45:35;20.60;99.90
23721;DHT22;42950;52.134;5.578;2022-08-20T01:48:01;20.60;99.90
23721;DHT22;42950;52.134;5.578;2022-08-20T01:50:30;20.60;99.90
23721;DHT22;42950;52.134;5.578;2022-08-20T01:53:03;20.60;99.90
23721;DHT22;42950;52.134;5.578;2022-08-20T01:55:31;20.60;99.90
23721;DHT22;42950;52.134;5.578;2022-08-20T01:57:57;20.60;99.90
23721;DHT22;42950;52.134;5.578;2022-08-20T02:00:24;20.60;99.90
23721;DHT22;42950;52.134;5.578;2022-08-20T02:02:49;20.60;99.90
23721;DHT22;42950;52.134;5.578;2022-08-20T02:05:15;20.60;99.90
23721;DHT22;42950;52.134;5.578;2022-08-20T02:07:41;20.60;99.90
23721;DHT22;42950;52.134;5.578;2022-08-20T02:10:09;20.50;99.90
23721;DHT22;42950;52.134;5.578;2022-08-20T02:12:36;20.60;99.90
23721;DHT22;42950;52.134;5.578;2022-08-20T02:15:02;20.50;99.90
23721;DHT22;42950;52.134;5.578;2022-08-20T02:17:29;20.50;99.90
23721;DHT22;42950;52.134;5.578;2022-08-20T02:20:00;20.40;99.90
23721;DHT22;42950;52.134;5.578;2022-08-20T02:24:59;20.10;99.90
23721;DHT22;42950;52.134;5.578;2022-08-20T02:27:25;19.90;99.90
23721;DHT22;42950;52.134;5.578;2022-08-20T02:29:51;19.70;99.90
23721;DHT22;42950;52.134;5.578;2022-08-20T02:32:18;19.60;99.90
23721;DHT22;42950;52.134;5.578;2022-08-20T02:34:44;19.60;99.90
23721;DHT22;42950;52.134;5.578;2022-08-20T02:37:10;19.60;99.90
23721;DHT22;42950;52.134;5.578;2022-08-20T02:39:36;19.60;99.90
23721;DHT22;42950;52.134;5.578;2022-08-20T02:42:01;19.50;99.90
23721;DHT22;42950;52.134;5.578;2022-08-20T02:44:28;19.60;99.90
23721;DHT22;42950;52.134;5.578;2022-08-20T02:46:54;19.60;99.90
23721;DHT22;42950;52.134;5.578;2022-08-20T02:49:20;19.60;99.90
23721;DHT22;42950;52.134;5.578;2022-08-20T02:51:45;19.70;99.90
23721;DHT22;42950;52.134;5.578;2022-08-20T02:54:12;19.70;99.90
23721;DHT22;42950;52.134;5.578;2022-08-20T02:56:38;19.70;99.90
23721;DHT22;42950;52.134;5.578;2022-08-20T02:59:04;19.70;99.90
23721;DHT22;42950;52.134;5.578;2022-08-20T03:01:30;19.70;99.90
23721;DHT22;42950;52.134;5.578;2022-08-20T03:03:56;19.60;99.90
23721;DHT22;42950;52.134;5.578;2022-08-20T03:06:24;19.60;99.90
23721;DHT22;42950;52.134;5.578;2022-08-20T03:08:49;19.60;99.90
23721;DHT22;42950;52.134;5.578;2022-08-20T03:11:16;19.60;99.90
23721;DHT22;42950;52.134;5.578;2022-08-20T03:13:42;19.70;99.90
23721;DHT22;42950;52.134;5.578;2022-08-20T03:16:08;19.70;99.90
23721;DHT22;42950;52.134;5.578;2022-08-20T03:18:38;19.70;99.90
23721;DHT22;42950;52.134;5.578;2022-08-20T03:21:05;19.70;99.90
23721;DHT22;42950;52.134;5.578;2022-08-20T03:23:32;19.70;99.90
23721;DHT22;42950;52.134;5.578;2022-08-20T03:25:58;19.60;99.90
23721;DHT22;42950;52.134;5.578;2022-08-20T03:28:24;19.60;99.90
23721;DHT22;42950;52.134;5.578;2022-08-20T03:30:51;19.60;99.90
23721;DHT22;42950;52.134;5.578;2022-08-20T03:33:18;19.50;99.90
23721;DHT22;42950;52.134;5.578;2022-08-20T03:35:45;19.50;99.90
23721;DHT22;42950;52.134;5.578;2022-08-20T03:38:13;19.50;99.90
23721;DHT22;42950;52.134;5.578;2022-08-20T03:40:39;19.60;99.90
23721;DHT22;42950;52.134;5.578;2022-08-20T03:43:06;19.60;99.90
23721;DHT22;42950;52.134;5.578;2022-08-20T03:45:37;19.70;99.90
23721;DHT22;42950;52.134;5.578;2022-08-20T03:48:05;19.70;99.90
23721;DHT22;42950;52.134;5.578;2022-08-20T03:50:32;19.70;99.90
23721;DHT22;42950;52.134;5.578;2022-08-20T03:52:59;19.80;99.90
23721;DHT22;42950;52.134;5.578;2022-08-20T03:55:25;19.80;99.90
23721;DHT22;42950;52.134;5.578;2022-08-20T03:57:55;19.80;99.90
23721;DHT22;42950;52.134;5.578;2022-08-20T04:03:26;19.90;99.90
23721;DHT22;42950;52.134;5.578;2022-08-20T04:05:53;19.70;99.90
23721;DHT22;42950;52.134;5.578;2022-08-20T04:08:21;19.70;99.90
23721;DHT22;42950;52.134;5.578;2022-08-20T04:10:49;19.60;99.90
23721;DHT22;42950;52.134;5.578;2022-08-20T04:13:18;19.60;99.90
23721;DHT22;42950;52.134;5.578;2022-08-20T04:15:44;19.70;99.90
23721;DHT22;42950;52.134;5.578;2022-08-20T04:18:11;19.70;99.90
23721;DHT22;42950;52.134;5.578;2022-08-20T04:20:40;19.80;99.90
23721;DHT22;42950;52.134;5.578;2022-08-20T04:23:06;19.80;99.90
23721;DHT22;42950;52.134;5.578;2022-08-20T04:25:34;19.80;99.90
23721;DHT22;42950;52.134;5.578;2022-08-20T04:28:02;19.80;99.90
23721;DHT22;42950;52.134;5.578;2022-08-20T04:30:29;19.80;99.90
23721;DHT22;42950;52.134;5.578;2022-08-20T04:32:55;19.80;99.90
23721;DHT22;42950;52.134;5.578;2022-08-20T04:35:21;19.80;99.90
23721;DHT22;42950;52.134;5.578;2022-08-20T04:37:55;19.80;99.90
23721;DHT22;42950;52.134;5.578;2022-08-20T04:40:22;19.70;99.90
23721;DHT22;42950;52.134;5.578;2022-08-20T04:43:06;19.60;99.90
23721;DHT22;42950;52.134;5.578;2022-08-20T04:45:32;19.60;99.90
23721;DHT22;42950;52.134;5.578;2022-08-20T04:48:00;19.50;99.90
23721;DHT22;42950;52.134;5.578;2022-08-20T04:50:30;19.50;99.90
23721;DHT22;42950;52.134;5.578;2022-08-20T04:52:59;19.30;99.90
23721;DHT22;42950;52.134;5.578;2022-08-20T04:55:25;19.30;99.90
23721;DHT22;42950;52.134;5.578;2022-08-20T04:57:50;19.30;99.90
23721;DHT22;42950;52.134;5.578;2022-08-20T05:00:16;19.20;99.90
23721;DHT22;42950;52.134;5.578;2022-08-20T05:02:43;19.10;99.90
23721;DHT22;42950;52.134;5.578;2022-08-20T05:05:09;19.00;99.90
23721;DHT22;42950;52.134;5.578;2022-08-20T05:07:43;19.10;99.90
23721;DHT22;42950;52.134;5.578;2022-08-20T05:10:14;19.10;99.90
23721;DHT22;42950;52.134;5.578;2022-08-20T05:12:41;19.10;99.90
23721;DHT22;42950;52.134;5.578;2022-08-20T05:15:07;19.10;99.90
23721;DHT22;42950;52.134;5.578;2022-08-20T05:17:36;19.10;99.90
23721;DHT22;42950;52.134;5.578;2022-08-20T05:20:02;19.10;99.90
23721;DHT22;42950;52.134;5.578;2022-08-20T05:22:28;19.10;99.90
23721;DHT22;42950;52.134;5.578;2022-08-20T05:24:54;19.10;99.90
23721;DHT22;42950;52.134;5.578;2022-08-20T05:27:21;19.10;99.90
23721;DHT22;42950;52.134;5.578;2022-08-20T05:30:01;19.10;99.90
23721;DHT22;42950;52.134;5.578;2022-08-20T05:32:30;19.10;99.90
23721;DHT22;42950;52.134;5.578;2022-08-20T05:34:55;19.00;99.90
23721;DHT22;42950;52.134;5.578;2022-08-20T05:37:21;19.10;99.90
23721;DHT22;42950;52.134;5.578;2022-08-20T05:39:47;19.10;99.90
23721;DHT22;42950;52.134;5.578;2022-08-20T05:42:13;19.10;99.90
23721;DHT22;42950;52.134;5.578;2022-08-20T05:44:38;19.10;99.90
23721;DHT22;42950;52.134;5.578;2022-08-20T05:47:04;19.20;99.90
23721;DHT22;42950;52.134;5.578;2022-08-20T05:49:30;19.20;99.90
23721;DHT22;42950;52.134;5.578;2022-08-20T05:51:56;19.30;99.90
23721;DHT22;42950;52.134;5.578;2022-08-20T05:54:23;19.30;99.90
23721;DHT22;42950;52.134;5.578;2022-08-20T05:56:49;19.30;99.90
23721;DHT22;42950;52.134;5.578;2022-08-20T05:59:15;19.30;99.90
23721;DHT22;42950;52.134;5.578;2022-08-20T06:01:41;19.40;99.90
23721;DHT22;42950;52.134;5.578;2022-08-20T06:04:08;19.40;99.90
23721;DHT22;42950;52.134;5.578;2022-08-20T06:06:53;19.50;99.90
23721;DHT22;42950;52.134;5.578;2022-08-20T06:09:21;19.50;99.90
23721;DHT22;42950;52.134;5.578;2022-08-20T06:11:47;19.50;99.90
23721;DHT22;42950;52.134;5.578;2022-08-20T06:14:13;19.60;99.90
23721;DHT22;42950;52.134;5.578;2022-08-20T06:16:40;19.60;99.90
23721;DHT22;42950;52.134;5.578;2022-08-20T06:19:06;19.50;99.90
23721;DHT22;42950;52.134;5.578;2022-08-20T06:21:32;19.50;99.90
23721;DHT22;42950;52.134;5.578;2022-08-20T06:23:57;19.50;99.90
23721;DHT22;42950;52.134;5.578;2022-08-20T06:26:23;19.50;99.90
23721;DHT22;42950;52.134;5.578;2022-08-20T06:28:48;19.50;99.90
23721;DHT22;42950;52.134;5.578;2022-08-20T06:31:14;19.50;99.90
23721;DHT22;42950;52.134;5.578;2022-08-20T06:33:39;19.50;99.90
23721;DHT22;42950;52.134;5.578;2022-08-20T06:36:05;19.40;99.90
23721;DHT22;42950;52.134;5.578;2022-08-20T06:38:31;19.20;99.90
23721;DHT22;42950;52.134;5.578;2022-08-20T06:40:57;19.10;99.90
23721;DHT22;42950;52.134;5.578;2022-08-20T06:43:23;19.10;99.90
23721;DHT22;42950;52.134;5.578;2022-08-20T06:45:49;19.20;99.90
23721;DHT22;42950;52.134;5.578;2022-08-20T06:48:14;19.10;99.90
23721;DHT22;42950;52.134;5.578;2022-08-20T06:50:44;19.10;99.90
23721;DHT22;42950;52.134;5.578;2022-08-20T06:53:12;19.00;99.90
23721;DHT22;42950;52.134;5.578;2022-08-20T06:55:40;19.00;99.90
23721;DHT22;42950;52.134;5.578;2022-08-20T06:58:08;19.00;99.90
23721;DHT22;42950;52.134;5.578;2022-08-20T07:00:37;18.90;99.90
23721;DHT22;42950;52.134;5.578;2022-08-20T07:03:03;19.00;99.90
23721;DHT22;42950;52.134;5.578;2022-08-20T07:05:34;19.10;99.90
23721;DHT22;42950;52.134;5.578;2022-08-20T07:08:01;19.30;99.90
23721;DHT22;42950;52.134;5.578;2022-08-20T07:10:28;19.20;99.90
23721;DHT22;42950;52.134;5.578;2022-08-20T07:12:55;19.20;99.90
23721;DHT22;42950;52.134;5.578;2022-08-20T07:15:22;19.30;99.90
23721;DHT22;42950;52.134;5.578;2022-08-20T07:17:55;19.30;99.90
23721;DHT22;42950;52.134;5.578;2022-08-20T07:20:21;19.40;99.90
23721;DHT22;42950;52.134;5.578;2022-08-20T07:22:47;19.30;99.90
23721;DHT22;42950;52.134;5.578;2022-08-20T07:25:15;19.40;99.90
23721;DHT22;42950;52.134;5.578;2022-08-20T07:27:42;19.50;99.90
23721;DHT22;42950;52.134;5.578;2022-08-20T07:30:11;19.60;99.90
23721;DHT22;42950;52.134;5.578;2022-08-20T07:32:55;19.70;99.90
23721;DHT22;42950;52.134;5.578;2022-08-20T07:35:22;19.50;99.90
23721;DHT22;42950;52.134;5.578;2022-08-20T07:37:50;19.60;99.90
23721;DHT22;42950;52.134;5.578;2022-08-20T07:40:30;19.60;99.90
23721;DHT22;42950;52.134;5.578;2022-08-20T07:42:58;19.80;99.90
23721;DHT22;42950;52.134;5.578;2022-08-20T07:45:26;19.80;99.90
23721;DHT22;42950;52.134;5.578;2022-08-20T07:47:52;19.80;99.90
23721;DHT22;42950;52.134;5.578;2022-08-20T07:50:22;19.70;99.90
23721;DHT22;42950;52.134;5.578;2022-08-20T07:52:48;19.80;99.90
23721;DHT22;42950;52.134;5.578;2022-08-20T07:55:18;19.80;99.90
23721;DHT22;42950;52.134;5.578;2022-08-20T07:57:44;19.90;99.90
23721;DHT22;42950;52.134;5.578;2022-08-20T08:00:12;19.90;99.90
23721;DHT22;42950;52.134;5.578;2022-08-20T08:02:38;19.90;99.90
23721;DHT22;42950;52.134;5.578;2022-08-20T08:05:05;19.90;99.90
23721;DHT22;42950;52.134;5.578;2022-08-20T08:07:32;20.00;99.90
23721;DHT22;42950;52.134;5.578;2022-08-20T08:10:00;20.20;99.90
23721;DHT22;42950;52.134;5.578;2022-08-20T08:12:32;20.20;99.90
23721;DHT22;42950;52.134;5.578;2022-08-20T08:14:59;20.20;99.90
23721;DHT22;42950;52.134;5.578;2022-08-20T08:17:25;20.40;99.90
23721;DHT22;42950;52.134;5.578;2022-08-20T08:19:50;20.40;99.90
23721;DHT22;42950;52.134;5.578;2022-08-20T08:22:17;20.30;99.90
23721;DHT22;42950;52.134;5.578;2022-08-20T08:24:45;20.30;99.90
23721;DHT22;42950;52.134;5.578;2022-08-20T08:27:12;20.40;99.90
23721;DHT22;42950;52.134;5.578;2022-08-20T08:29:38;20.50;99.90
23721;DHT22;42950;52.134;5.578;2022-08-20T08:32:05;20.50;99.90
23721;DHT22;42950;52.134;5.578;2022-08-20T08:34:33;20.50;99.90
23721;DHT22;42950;52.134;5.578;2022-08-20T08:36:58;20.60;99.90
23721;DHT22;42950;52.134;5.578;2022-08-20T08:39:27;20.80;99.90
23721;DHT22;42950;52.134;5.578;2022-08-20T08:41:53;20.70;99.90
23721;DHT22;42950;52.134;5.578;2022-08-20T08:44:27;20.80;99.90
23721;DHT22;42950;52.134;5.578;2022-08-20T08:47:10;21.00;99.90
23721;DHT22;42950;52.134;5.578;2022-08-20T08:49:43;20.80;99.90
23721;DHT22;42950;52.134;5.578;2022-08-20T08:52:21;20.90;99.90
23721;DHT22;42950;52.134;5.578;2022-08-20T08:54:51;21.00;99.90
23721;DHT22;42950;52.134;5.578;2022-08-20T08:57:18;21.20;99.90
23721;DHT22;42950;52.134;5.578;2022-08-20T08:59:47;21.40;99.90
23721;DHT22;42950;52.134;5.578;2022-08-20T09:02:22;21.60;99.90
23721;DHT22;42950;52.134;5.578;2022-08-20T09:04:51;21.50;99.90
23721;DHT22;42950;52.134;5.578;2022-08-20T09:07:21;21.50;99.90
23721;DHT22;42950;52.134;5.578;2022-08-20T09:09:49;21.40;99.90
23721;DHT22;42950;52.134;5.578;2022-08-20T09:12:18;21.50;99.90
23721;DHT22;42950;52.134;5.578;2022-08-20T09:14:49;21.70;99.90
23721;DHT22;42950;52.134;5.578;2022-08-20T09:17:16;21.80;99.90
23721;DHT22;42950;52.134;5.578;2022-08-20T09:19:43;21.90;99.90
23721;DHT22;42950;52.134;5.578;2022-08-20T09:22:11;22.10;99.90
23721;DHT22;42950;52.134;5.578;2022-08-20T09:24:37;22.20;99.90
23721;DHT22;42950;52.134;5.578;2022-08-20T09:27:03;22.30;99.90
23721;DHT22;42950;52.134;5.578;2022-08-20T09:29:29;22.40;99.90
23721;DHT22;42950;52.134;5.578;2022-08-20T09:32:16;22.20;99.90
23721;DHT22;42950;52.134;5.578;2022-08-20T09:34:46;22.40;99.90
23721;DHT22;42950;52.134;5.578;2022-08-20T09:37:13;22.50;99.90
23721;DHT22;42950;52.134;5.578;2022-08-20T09:39:39;22.80;99.90
23721;DHT22;42950;52.134;5.578;2022-08-20T09:42:10;22.90;99.90
23721;DHT22;42950;52.134;5.578;2022-08-20T09:44:35;23.10;99.90
23721;DHT22;42950;52.134;5.578;2022-08-20T09:47:01;23.30;99.90
23721;DHT22;42950;52.134;5.578;2022-08-20T09:49:27;23.40;99.90
23721;DHT22;42950;52.134;5.578;2022-08-20T09:51:52;23.30;99.90
23721;DHT22;42950;52.134;5.578;2022-08-20T09:54:19;23.30;99.90
23721;DHT22;42950;52.134;5.578;2022-08-20T09:56:45;23.40;99.90
23721;DHT22;42950;52.134;5.578;2022-08-20T09:59:12;23.40;99.90
23721;DHT22;42950;52.134;5.578;2022-08-20T10:01:38;23.40;99.90
23721;DHT22;42950;52.134;5.578;2022-08-20T10:04:04;23.50;99.90
23721;DHT22;42950;52.134;5.578;2022-08-20T10:06:29;23.40;99.90
23721;DHT22;42950;52.134;5.578;2022-08-20T10:08:55;23.70;99.90
23721;DHT22;42950;52.134;5.578;2022-08-20T10:11:21;24.10;99.90
23721;DHT22;42950;52.134;5.578;2022-08-20T10:13:46;24.10;99.90
23721;DHT22;42950;52.134;5.578;2022-08-20T10:16:12;23.90;99.90
23721;DHT22;42950;52.134;5.578;2022-08-20T10:18:37;24.00;99.90
23721;DHT22;42950;52.134;5.578;2022-08-20T10:21:11;24.30;99.90
23721;DHT22;42950;52.134;5.578;2022-08-20T10:23:36;24.50;99.90
23721;DHT22;42950;52.134;5.578;2022-08-20T10:26:02;24.00;99.90
23721;DHT22;42950;52.134;5.578;2022-08-20T10:28:28;24.10;99.90
23721;DHT22;42950;52.134;5.578;2022-08-20T10:30:54;24.10;99.90
23721;DHT22;42950;52.134;5.578;2022-08-20T10:33:19;24.10;99.90
23721;DHT22;42950;52.134;5.578;2022-08-20T10:35:45;24.20;99.90
23721;DHT22;42950;52.134;5.578;2022-08-20T10:38:10;24.40;99.90
23721;DHT22;42950;52.134;5.578;2022-08-20T10:40:36;24.50;99.90
23721;DHT22;42950;52.134;5.578;2022-08-20T10:43:01;24.60;99.90
23721;DHT22;42950;52.134;5.578;2022-08-20T10:45:27;24.50;99.90
23721;DHT22;42950;52.134;5.578;2022-08-20T10:47:53;24.80;99.90
23721;DHT22;42950;52.134;5.578;2022-08-20T10:50:18;24.90;99.90
23721;DHT22;42950;52.134;5.578;2022-08-20T10:52:44;24.90;99.90
23721;DHT22;42950;52.134;5.578;2022-08-20T10:55:11;24.60;99.90
23721;DHT22;42950;52.134;5.578;2022-08-20T10:57:38;24.60;99.90
23721;DHT22;42950;52.134;5.578;2022-08-20T11:00:04;24.90;99.90
23721;DHT22;42950;52.134;5.578;2022-08-20T11:02:32;24.90;99.90
23721;DHT22;42950;52.134;5.578;2022-08-20T11:04:58;24.90;99.90
23721;DHT22;42950;52.134;5.578;2022-08-20T11:07:29;25.00;99.90
23721;DHT22;42950;52.134;5.578;2022-08-20T11:09:56;25.20;99.90
23721;DHT22;42950;52.134;5.578;2022-08-20T11:12:22;25.20;99.90
23721;DHT22;42950;52.134;5.578;2022-08-20T11:14:48;25.30;99.90
23721;DHT22;42950;52.134;5.578;2022-08-20T11:17:23;25.20;99.90
23721;DHT22;42950;52.134;5.578;2022-08-20T11:19:50;25.10;99.90
23721;DHT22;42950;52.134;5.578;2022-08-20T11:22:15;25.20;99.90
23721;DHT22;42950;52.134;5.578;2022-08-20T11:24:41;25.00;99.90
23721;DHT22;42950;52.134;5.578;2022-08-20T11:27:07;24.90;99.90
23721;DHT22;42950;52.134;5.578;2022-08-20T11:29:34;24.90;99.90
23721;DHT22;42950;52.134;5.578;2022-08-20T11:32:00;24.70;99.90
23721;DHT22;42950;52.134;5.578;2022-08-20T11:34:25;24.40;99.90
23721;DHT22;42950;52.134;5.578;2022-08-20T11:36:51;24.10;99.90
23721;DHT22;42950;52.134;5.578;2022-08-20T11:39:17;24.40;99.90
23721;DHT22;42950;52.134;5.578;2022-08-20T11:41:43;25.00;99.90
23721;DHT22;42950;52.134;5.578;2022-08-20T11:44:09;25.10;99.90
23721;DHT22;42950;52.134;5.578;2022-08-20T11:46:35;24.70;99.90
23721;DHT22;42950;52.134;5.578;2022-08-20T11:49:02;24.40;99.90
23721;DHT22;42950;52.134;5.578;2022-08-20T11:51:27;24.50;99.90
23721;DHT22;42950;52.134;5.578;2022-08-20T11:53:53;24.30;99.90
23721;DHT22;42950;52.134;5.578;2022-08-20T11:56:18;24.20;99.90
23721;DHT22;42950;52.134;5.578;2022-08-20T11:58:45;24.00;99.90
23721;DHT22;42950;52.134;5.578;2022-08-20T12:01:10;24.10;99.90
23721;DHT22;42950;52.134;5.578;2022-08-20T12:03:36;24.30;99.90
23721;DHT22;42950;52.134;5.578;2022-08-20T12:06:02;24.60;99.90
23721;DHT22;42950;52.134;5.578;2022-08-20T12:08:27;25.00;99.90
23721;DHT22;42950;52.134;5.578;2022-08-20T12:10:58;24.90;99.90
23721;DHT22;42950;52.134;5.578;2022-08-20T12:13:25;25.10;99.90
23721;DHT22;42950;52.134;5.578;2022-08-20T12:15:53;25.20;99.90
23721;DHT22;42950;52.134;5.578;2022-08-20T12:18:19;25.40;99.90
23721;DHT22;42950;52.134;5.578;2022-08-20T12:20:45;25.80;99.90
23721;DHT22;42950;52.134;5.578;2022-08-20T12:23:10;26.20;99.90
23721;DHT22;42950;52.134;5.578;2022-08-20T12:25:36;26.30;99.90
23721;DHT22;42950;52.134;5.578;2022-08-20T12:28:02;26.50;99.90
23721;DHT22;42950;52.134;5.578;2022-08-20T12:30:30;26.50;99.90
23721;DHT22;42950;52.134;5.578;2022-08-20T12:32:55;26.30;99.90
23721;DHT22;42950;52.134;5.578;2022-08-20T12:35:21;26.10;99.90
23721;DHT22;42950;52.134;5.578;2022-08-20T12:37:47;26.00;99.90
23721;DHT22;42950;52.134;5.578;2022-08-20T12:40:16;26.00;99.90
23721;DHT22;42950;52.134;5.578;2022-08-20T12:42:43;25.90;99.90
23721;DHT22;42950;52.134;5.578;2022-08-20T12:45:09;26.10;99.90
23721;DHT22;42950;52.134;5.578;2022-08-20T12:47:37;26.20;99.90
23721;DHT22;42950;52.134;5.578;2022-08-20T12:50:18;26.00;99.90
23721;DHT22;42950;52.134;5.578;2022-08-20T12:52:45;25.60;99.90
23721;DHT22;42950;52.134;5.578;2022-08-20T12:55:13;25.50;99.90
23721;DHT22;42950;52.134;5.578;2022-08-20T12:57:40;25.40;99.90
23721;DHT22;42950;52.134;5.578;2022-08-20T13:00:16;25.30;99.90
23721;DHT22;42950;52.134;5.578;2022-08-20T13:02:44;25.50;99.90
23721;DHT22;42950;52.134;5.578;2022-08-20T13:05:11;25.70;99.90
23721;DHT22;42950;52.134;5.578;2022-08-20T13:07:38;26.00;99.90
23721;DHT22;42950;52.134;5.578;2022-08-20T13:10:05;26.20;99.90
23721;DHT22;42950;52.134;5.578;2022-08-20T13:12:31;26.20;99.90
23721;DHT22;42950;52.134;5.578;2022-08-20T13:14:57;26.00;99.90
23721;DHT22;42950;52.134;5.578;2022-08-20T13:17:22;25.70;99.90
23721;DHT22;42950;52.134;5.578;2022-08-20T13:19:48;25.40;99.90
23721;DHT22;42950;52.134;5.578;2022-08-20T13:22:14;25.10;99.90
23721;DHT22;42950;52.134;5.578;2022-08-20T13:24:40;25.00;99.90
23721;DHT22;42950;52.134;5.578;2022-08-20T13:27:07;25.20;99.90
23721;DHT22;42950;52.134;5.578;2022-08-20T13:29:33;25.20;99.90
23721;DHT22;42950;52.134;5.578;2022-08-20T13:31:59;25.30;99.90
23721;DHT22;42950;52.134;5.578;2022-08-20T13:34:25;25.40;99.90
23721;DHT22;42950;52.134;5.578;2022-08-20T13:36:50;25.40;99.90
23721;DHT22;42950;52.134;5.578;2022-08-20T13:39:16;25.40;99.90
23721;DHT22;42950;52.134;5.578;2022-08-20T13:41:41;25.30;99.90
23721;DHT22;42950;52.134;5.578;2022-08-20T13:44:08;25.20;99.90
23721;DHT22;42950;52.134;5.578;2022-08-20T13:46:34;25.20;99.90
23721;DHT22;42950;52.134;5.578;2022-08-20T13:49:00;25.40;99.90
23721;DHT22;42950;52.134;5.578;2022-08-20T13:51:25;25.50;99.90
23721;DHT22;42950;52.134;5.578;2022-08-20T13:53:51;25.60;99.90
23721;DHT22;42950;52.134;5.578;2022-08-20T13:56:16;25.20;99.90
23721;DHT22;42950;52.134;5.578;2022-08-20T13:58:42;25.20;99.90
23721;DHT22;42950;52.134;5.578;2022-08-20T14:01:07;25.20;99.90
23721;DHT22;42950;52.134;5.578;2022-08-20T14:03:33;25.20;99.90
23721;DHT22;42950;52.134;5.578;2022-08-20T14:06:00;25.30;99.90
23721;DHT22;42950;52.134;5.578;2022-08-20T14:08:26;25.30;99.90
23721;DHT22;42950;52.134;5.578;2022-08-20T14:10:51;25.20;99.90
23721;DHT22;42950;52.134;5.578;2022-08-20T14:13:20;25.30;99.90
23721;DHT22;42950;52.134;5.578;2022-08-20T14:15:47;25.20;99.90
23721;DHT22;42950;52.134;5.578;2022-08-20T14:18:13;25.20;99.90
23721;DHT22;42950;52.134;5.578;2022-08-20T14:20:40;24.90;99.90
23721;DHT22;42950;52.134;5.578;2022-08-20T14:23:06;24.90;99.90
23721;DHT22;42950;52.134;5.578;2022-08-20T14:25:32;25.00;99.90
23721;DHT22;42950;52.134;5.578;2022-08-20T14:27:59;24.90;99.90
23721;DHT22;42950;52.134;5.578;2022-08-20T14:30:32;25.00;99.90
23721;DHT22;42950;52.134;5.578;2022-08-20T14:32:58;24.80;99.90
23721;DHT22;42950;52.134;5.578;2022-08-20T14:35:23;24.80;99.90
23721;DHT22;42950;52.134;5.578;2022-08-20T14:37:51;24.60;99.90
23721;DHT22;42950;52.134;5.578;2022-08-20T14:40:18;24.70;99.90
23721;DHT22;42950;52.134;5.578;2022-08-20T14:42:44;24.80;99.90
23721;DHT22;42950;52.134;5.578;2022-08-20T14:45:12;25.10;99.90
23721;DHT22;42950;52.134;5.578;2022-08-20T14:47:41;25.40;99.90
23721;DHT22;42950;52.134;5.578;2022-08-20T14:50:13;25.60;99.90
23721;DHT22;42950;52.134;5.578;2022-08-20T14:52:39;25.60;99.90
23721;DHT22;42950;52.134;5.578;2022-08-20T14:55:14;25.30;99.90
23721;DHT22;42950;52.134;5.578;2022-08-20T14:57:41;25.40;99.90
23721;DHT22;42950;52.134;5.578;2022-08-20T15:00:10;25.50;99.90
23721;DHT22;42950;52.134;5.578;2022-08-20T15:02:37;25.50;99.90
23721;DHT22;42950;52.134;5.578;2022-08-20T15:05:04;25.40;99.90
23721;DHT22;42950;52.134;5.578;2022-08-20T15:07:33;25.20;99.90
23721;DHT22;42950;52.134;5.578;2022-08-20T15:10:00;24.80;99.90
23721;DHT22;42950;52.134;5.578;2022-08-20T15:12:27;24.60;99.90
23721;DHT22;42950;52.134;5.578;2022-08-20T15:14:53;24.40;99.90
23721;DHT22;42950;52.134;5.578;2022-08-20T15:17:24;24.50;99.90
23721;DHT22;42950;52.134;5.578;2022-08-20T15:19:51;24.60;99.90
23721;DHT22;42950;52.134;5.578;2022-08-20T15:22:18;24.60;99.90
23721;DHT22;42950;52.134;5.578;2022-08-20T15:24:44;24.70;99.90
23721;DHT22;42950;52.134;5.578;2022-08-20T15:29:37;24.90;99.90
23721;DHT22;42950;52.134;5.578;2022-08-20T15:32:03;25.20;99.90
23721;DHT22;42950;52.134;5.578;2022-08-20T15:34:28;25.10;99.90
23721;DHT22;42950;52.134;5.578;2022-08-20T15:36:56;24.70;99.90
23721;DHT22;42950;52.134;5.578;2022-08-20T15:39:22;24.30;99.90
23721;DHT22;42950;52.134;5.578;2022-08-20T15:41:47;24.20;99.90
23721;DHT22;42950;52.134;5.578;2022-08-20T15:44:13;24.20;99.90